地図

経路データ

SID SEASON NUMBER BASIN SUBBASIN NAME ISO_TIME NATURE LAT LON WMO_WIND WMO_PRES WMO_AGENCY TRACK_TYPE DIST2LAND LANDFALL IFLAG USA_AGENCY USA_ATCF_ID USA_LAT USA_LON USA_RECORD USA_STATUS USA_WIND USA_PRES USA_SSHS USA_R34_NE USA_R34_SE USA_R34_SW USA_R34_NW USA_R50_NE USA_R50_SE USA_R50_SW USA_R50_NW USA_R64_NE USA_R64_SE USA_R64_SW USA_R64_NW USA_POCI USA_ROCI USA_RMW USA_EYE TOKYO_LAT TOKYO_LON TOKYO_GRADE TOKYO_WIND TOKYO_PRES TOKYO_R50_DIR TOKYO_R50_LONG TOKYO_R50_SHORT TOKYO_R30_DIR TOKYO_R30_LONG TOKYO_R30_SHORT TOKYO_LAND CMA_LAT CMA_LON CMA_CAT CMA_WIND CMA_PRES HKO_LAT HKO_LON HKO_CAT HKO_WIND HKO_PRES NEWDELHI_LAT NEWDELHI_LON NEWDELHI_GRADE NEWDELHI_WIND NEWDELHI_PRES NEWDELHI_CI NEWDELHI_DP NEWDELHI_POCI REUNION_LAT REUNION_LON REUNION_TYPE REUNION_WIND REUNION_PRES REUNION_TNUM REUNION_CI REUNION_RMW REUNION_R34_NE REUNION_R34_SE REUNION_R34_SW REUNION_R34_NW REUNION_R50_NE REUNION_R50_SE REUNION_R50_SW REUNION_R50_NW REUNION_R64_NE REUNION_R64_SE REUNION_R64_SW REUNION_R64_NW BOM_LAT BOM_LON BOM_TYPE BOM_WIND BOM_PRES BOM_TNUM BOM_CI BOM_RMW BOM_R34_NE BOM_R34_SE BOM_R34_SW BOM_R34_NW BOM_R50_NE BOM_R50_SE BOM_R50_SW BOM_R50_NW BOM_R64_NE BOM_R64_SE BOM_R64_SW BOM_R64_NW BOM_ROCI BOM_POCI BOM_EYE BOM_POS_METHOD BOM_PRES_METHOD NADI_LAT NADI_LON NADI_CAT NADI_WIND NADI_PRES WELLINGTON_LAT WELLINGTON_LON WELLINGTON_WIND WELLINGTON_PRES DS824_LAT DS824_LON DS824_STAGE DS824_WIND DS824_PRES TD9636_LAT TD9636_LON TD9636_STAGE TD9636_WIND TD9636_PRES TD9635_LAT TD9635_LON TD9635_WIND TD9635_PRES TD9635_ROCI NEUMANN_LAT NEUMANN_LON NEUMANN_CLASS NEUMANN_WIND NEUMANN_PRES MLC_LAT MLC_LON MLC_CLASS MLC_WIND MLC_PRES USA_GUST BOM_GUST BOM_GUST_PER REUNION_GUST REUNION_GUST_PER USA_SEAHGT USA_SEARAD_NE USA_SEARAD_SE USA_SEARAD_SW USA_SEARAD_NW STORM_SPEED STORM_DIR
1996319N11283 1996 113 NA CS MARCO 1996-11-13 12:00:00 DS 10.5000 -77.5000 20 1009 hurdat_atl main 155 155 O_____________ hurdat_atl AL131996 10.5000 -77.5000 LO 20 1009 -3 10 329
1996319N11283 1996 113 NA CS MARCO 1996-11-13 15:00:00 DS 10.9125 -77.7474 main 190 187 P_____________ AL131996 10.9125 -77.7474 LO 20 1009 -3 9 328
1996319N11283 1996 113 NA CS MARCO 1996-11-13 18:00:00 DS 11.3000 -78.0000 20 1009 hurdat_atl main 226 226 O_____________ hurdat_atl AL131996 11.3000 -78.0000 LO 20 1009 -3 9 326
1996319N11283 1996 113 NA CS MARCO 1996-11-13 21:00:00 DS 11.6500 -78.2576 main 250 250 P_____________ AL131996 11.6500 -78.2576 LO 20 1009 -3 9 325
1996319N11283 1996 113 NA CS MARCO 1996-11-14 00:00:00 DS 12.0000 -78.5000 20 1009 hurdat_atl main 287 287 O_____________ hurdat_atl AL131996 12.0000 -78.5000 LO 20 1009 -3 9 328
1996319N11283 1996 113 NA CS MARCO 1996-11-14 03:00:00 DS 12.4000 -78.7300 main 327 326 P_____________ AL131996 12.4000 -78.7300 LO 20 1009 -3 9 334
1996319N11283 1996 113 NA CS MARCO 1996-11-14 06:00:00 DS 12.8000 -78.9000 20 1009 hurdat_atl main 370 370 O_____________ hurdat_atl AL131996 12.8000 -78.9000 LO 20 1009 -3 8 343
1996319N11283 1996 113 NA CS MARCO 1996-11-14 09:00:00 DS 13.1725 -78.9801 main 414 414 P_____________ AL131996 13.1725 -78.9801 LO 20 1008 -3 7 352
1996319N11283 1996 113 NA CS MARCO 1996-11-14 12:00:00 DS 13.5000 -79.0000 20 1008 hurdat_atl main 448 448 O_____________ hurdat_atl AL131996 13.5000 -79.0000 LO 20 1008 -3 6 358
1996319N11283 1996 113 NA CS MARCO 1996-11-14 15:00:00 DS 13.7800 -79.0075 main 456 454 P_____________ AL131996 13.7800 -79.0075 LO 20 1008 -3 5 2
1996319N11283 1996 113 NA CS MARCO 1996-11-14 18:00:00 DS 14.0000 -79.0000 20 1008 hurdat_atl main 454 446 O_____________ hurdat_atl AL131996 14.0000 -79.0000 LO 20 1008 -3 4 0
1996319N11283 1996 113 NA CS MARCO 1996-11-14 21:00:00 DS 14.1575 -79.0000 main 436 426 P_____________ AL131996 14.1575 -79.0000 LO 20 1008 -3 3 0
1996319N11283 1996 113 NA CS MARCO 1996-11-15 00:00:00 DS 14.3000 -79.0000 20 1008 hurdat_atl main 426 405 O_____________ hurdat_atl AL131996 14.3000 -79.0000 LO 20 1008 -3 3 2
1996319N11283 1996 113 NA CS MARCO 1996-11-15 03:00:00 DS 14.5000 -79.0000 main 405 384 P_____________ AL131996 14.5000 -79.0000 LO 20 1008 -3 4 0
1996319N11283 1996 113 NA CS MARCO 1996-11-15 06:00:00 DS 14.7000 -79.0000 20 1008 hurdat_atl main 384 373 O_____________ hurdat_atl AL131996 14.7000 -79.0000 LO 20 1008 -3 3 2
1996319N11283 1996 113 NA CS MARCO 1996-11-15 09:00:00 DS 14.8425 -79.0000 main 373 352 P_____________ AL131996 14.8425 -79.0000 LO 20 1008 -3 3 0
1996319N11283 1996 113 NA CS MARCO 1996-11-15 12:00:00 DS 15.0000 -79.0000 20 1008 hurdat_atl main 352 332 O_____________ hurdat_atl AL131996 15.0000 -79.0000 LO 20 1008 -3 4 0
1996319N11283 1996 113 NA CS MARCO 1996-11-15 15:00:00 DS 15.2500 -79.0000 main 322 302 P_____________ AL131996 15.2500 -79.0000 LO 20 1008 -3 5 2
1996319N11283 1996 113 NA CS MARCO 1996-11-15 18:00:00 DS 15.5000 -79.0000 20 1008 hurdat_atl main 302 292 O_____________ hurdat_atl AL131996 15.5000 -79.0000 LO 20 1008 -3 4 0
1996319N11283 1996 113 NA CS MARCO 1996-11-15 21:00:00 DS 15.6575 -79.0000 main 282 272 P_____________ AL131996 15.6575 -79.0000 LO 20 1008 -3 3 0
1996319N11283 1996 113 NA CS MARCO 1996-11-16 00:00:00 DS 15.8000 -79.0000 20 1008 hurdat_atl main 272 253 O_____________ hurdat_atl AL131996 15.8000 -79.0000 LO 20 1008 -3 3 2
1996319N11283 1996 113 NA CS MARCO 1996-11-16 03:00:00 DS 16.0000 -79.0000 main 253 232 P_____________ AL131996 16.0000 -79.0000 LO 20 1008 -3 4 0
1996319N11283 1996 113 NA CS MARCO 1996-11-16 06:00:00 DS 16.2000 -79.0000 20 1008 hurdat_atl main 232 221 O_____________ hurdat_atl AL131996 16.2000 -79.0000 LO 20 1008 -3 3 2
1996319N11283 1996 113 NA CS MARCO 1996-11-16 09:00:00 DS 16.3425 -79.0000 main 221 200 P_____________ AL131996 16.3425 -79.0000 LO 22 1007 -3 3 0
1996319N11283 1996 113 NA CS MARCO 1996-11-16 12:00:00 DS 16.5000 -79.0000 25 1007 hurdat_atl main 200 165 O_____________ hurdat_atl AL131996 16.5000 -79.0000 LO 25 1007 -3 5 6
1996319N11283 1996 113 NA CS MARCO 1996-11-16 15:00:00 DS 16.7874 -78.9400 main 165 148 P_____________ AL131996 16.7874 -78.9400 LO 27 1007 -3 5 2
1996319N11283 1996 113 NA CS MARCO 1996-11-16 18:00:00 TS 17.0000 -79.0000 30 1007 hurdat_atl main 148 148 O_____________ hurdat_atl AL131996 17.0000 -79.0000 TD 30 1007 -1 4 296
1996319N11283 1996 113 NA CS MARCO 1996-11-16 21:00:00 TS 16.9752 -79.3475 main 164 164 P_____________ AL131996 16.9752 -79.3475 TD 30 1007 -1 8 255
1996319N11283 1996 113 NA CS MARCO 1996-11-17 00:00:00 TS 16.8000 -79.8000 30 1007 hurdat_atl main 215 215 O_____________ hurdat_atl AL131996 16.8000 -79.8000 TD 30 1007 -1 9 243
1996319N11283 1996 113 NA CS MARCO 1996-11-17 03:00:00 TS 16.5725 -80.1876 main 261 261 P_____________ AL131996 16.5725 -80.1876 TD 30 1007 -1 8 233
1996319N11283 1996 113 NA CS MARCO 1996-11-17 06:00:00 TS 16.3000 -80.5000 30 1007 hurdat_atl main 308 285 O_____________ hurdat_atl AL131996 16.3000 -80.5000 TD 30 1007 -1 7 224
1996319N11283 1996 113 NA CS MARCO 1996-11-17 09:00:00 TS 16.0724 -80.6873 main 285 262 P_____________ AL131996 16.0724 -80.6873 TD 30 1007 -1 6 210
1996319N11283 1996 113 NA CS MARCO 1996-11-17 12:00:00 TS 15.8000 -80.8000 30 1007 hurdat_atl main 262 240 O_____________ hurdat_atl AL131996 15.8000 -80.8000 TD 30 1007 -1 7 198
1996319N11283 1996 113 NA CS MARCO 1996-11-17 15:00:00 TS 15.3700 -80.9226 main 240 225 P_____________ AL131996 15.3700 -80.9226 TD 30 1006 -1 8 194
1996319N11283 1996 113 NA CS MARCO 1996-11-17 18:00:00 TS 15.0000 -81.0000 30 1006 hurdat_atl main 225 225 O_____________ hurdat_atl AL131996 15.0000 -81.0000 TD 30 1006 -1 5 191
1996319N11283 1996 113 NA CS MARCO 1996-11-17 21:00:00 TS 14.9050 -81.0149 main 225 225 P_____________ AL131996 14.9050 -81.0149 TD 30 1006 -1 1 0
1996319N11283 1996 113 NA CS MARCO 1996-11-18 00:00:00 TS 14.9000 -81.0000 30 1006 hurdat_atl main 225 225 O_____________ hurdat_atl AL131996 14.9000 -81.0000 TD 30 1006 -1 1 0
1996319N11283 1996 113 NA CS MARCO 1996-11-18 03:00:00 TS 14.8000 -81.0000 main 226 226 P_____________ AL131996 14.8000 -81.0000 TD 30 1005 -1 2 172
1996319N11283 1996 113 NA CS MARCO 1996-11-18 06:00:00 TS 14.7000 -81.0000 30 1005 hurdat_atl main 228 228 O_____________ hurdat_atl AL131996 14.7000 -81.0000 TD 30 1005 -1 2 174
1996319N11283 1996 113 NA CS MARCO 1996-11-18 09:00:00 TS 14.6425 -81.0000 main 230 230 P_____________ AL131996 14.6425 -81.0000 TD 30 1004 -1 1 0
1996319N11283 1996 113 NA CS MARCO 1996-11-18 12:00:00 TS 14.6000 -81.0000 30 1004 hurdat_atl main 230 230 O_____________ hurdat_atl AL131996 14.6000 -81.0000 TD 30 1004 -1 1 168
1996319N11283 1996 113 NA CS MARCO 1996-11-18 15:00:00 TS 14.5650 -81.0000 main 230 230 P_____________ AL131996 14.5650 -81.0000 TD 30 1003 -1 1 0
1996319N11283 1996 113 NA CS MARCO 1996-11-18 18:00:00 TS 14.5000 -81.0000 30 1003 hurdat_atl main 232 232 O_____________ hurdat_atl AL131996 14.5000 -81.0000 TD 30 1003 -1 2 187
1996319N11283 1996 113 NA CS MARCO 1996-11-18 21:00:00 TS 14.3725 -81.0075 main 235 235 P_____________ AL131996 14.3725 -81.0075 TD 30 1002 -1 3 0
1996319N11283 1996 113 NA CS MARCO 1996-11-19 00:00:00 TS 14.2000 -81.0000 30 1001 hurdat_atl main 237 237 O_____________ hurdat_atl AL131996 14.2000 -81.0000 TD 30 1001 -1 4 173
1996319N11283 1996 113 NA CS MARCO 1996-11-19 03:00:00 TS 14.0000 -80.9650 main 239 239 P_____________ AL131996 14.0000 -80.9650 TD 32 999 -1 4 167
1996319N11283 1996 113 NA CS MARCO 1996-11-19 06:00:00 TS 13.8000 -80.9000 35 998 hurdat_atl main 254 254 O_____________ hurdat_atl AL131996 13.8000 -80.9000 TS 35 998 0 4 161
1996319N11283 1996 113 NA CS MARCO 1996-11-19 09:00:00 TS 13.6200 -80.8300 main 270 270 P_____________ AL131996 13.6200 -80.8300 TS 40 997 0 4 147
1996319N11283 1996 113 NA CS MARCO 1996-11-19 12:00:00 TS 13.5000 -80.7000 45 997 hurdat_atl main 284 284 O_____________ hurdat_atl AL131996 13.5000 -80.7000 TS 45 997 0 4 116
1996319N11283 1996 113 NA CS MARCO 1996-11-19 15:00:00 TS 13.4550 -80.4874 main 305 305 P_____________ AL131996 13.4550 -80.4874 TS 50 996 0 5 90
1996319N11283 1996 113 NA CS MARCO 1996-11-19 18:00:00 TS 13.5000 -80.2000 55 995 hurdat_atl main 336 336 O_____________ hurdat_atl AL131996 13.5000 -80.2000 TS 55 995 0 6 71
1996319N11283 1996 113 NA CS MARCO 1996-11-19 21:00:00 TS 13.6499 -79.8876 main 364 362 P_____________ AL131996 13.6499 -79.8876 TS 57 992 0 7 66
1996319N11283 1996 113 NA CS MARCO 1996-11-20 00:00:00 TS 13.8000 -79.5000 60 990 hurdat_atl main 403 403 O_____________ hurdat_atl AL131996 13.8000 -79.5000 TS 60 990 0 9 81
1996319N11283 1996 113 NA CS MARCO 1996-11-20 03:00:00 TS 13.7926 -78.9997 main 456 456 P_____________ AL131996 13.7926 -78.9997 TS 62 986 0 10 90
1996319N11283 1996 113 NA CS MARCO 1996-11-20 06:00:00 TS 13.8000 -78.5000 65 983 hurdat_atl main 458 425 O_____________ hurdat_atl AL131996 13.8000 -78.5000 HU 65 983 1 9 78
1996319N11283 1996 113 NA CS MARCO 1996-11-20 09:00:00 TS 13.9699 -78.1051 main 425 396 P_____________ AL131996 13.9699 -78.1051 HU 65 986 1 8 60
1996319N11283 1996 113 NA CS MARCO 1996-11-20 12:00:00 TS 14.2000 -77.8000 65 989 hurdat_atl main 396 371 O_____________ hurdat_atl AL131996 14.2000 -77.8000 HU 65 989 1 7 50
1996319N11283 1996 113 NA CS MARCO 1996-11-20 15:00:00 TS 14.4074 -77.5699 main 371 347 P_____________ AL131996 14.4074 -77.5699 HU 55 994 0 6 44
1996319N11283 1996 113 NA CS MARCO 1996-11-20 18:00:00 TS 14.6000 -77.4000 45 1000 hurdat_atl main 347 324 O_____________ hurdat_atl AL131996 14.6000 -77.4000 TS 45 1000 0 5 42
1996319N11283 1996 113 NA CS MARCO 1996-11-20 21:00:00 TS 14.7650 -77.2425 main 324 313 P_____________ AL131996 14.7650 -77.2425 TS 45 1000 0 4 44
1996319N11283 1996 113 NA CS MARCO 1996-11-21 00:00:00 TS 14.9000 -77.1000 45 1000 hurdat_atl main 313 302 O_____________ hurdat_atl AL131996 14.9000 -77.1000 TS 45 1000 0 4 50
1996319N11283 1996 113 NA CS MARCO 1996-11-21 03:00:00 TS 15.0075 -76.9425 main 303 292 P_____________ AL131996 15.0075 -76.9425 TS 45 997 0 4 56
1996319N11283 1996 113 NA CS MARCO 1996-11-21 06:00:00 TS 15.1000 -76.8000 45 995 hurdat_atl main 294 284 O_____________ hurdat_atl AL131996 15.1000 -76.8000 TS 45 995 0 3 53
1996319N11283 1996 113 NA CS MARCO 1996-11-21 09:00:00 TS 15.1925 -76.6850 main 284 276 P_____________ AL131996 15.1925 -76.6850 TS 47 994 0 3 44
1996319N11283 1996 113 NA CS MARCO 1996-11-21 12:00:00 TS 15.3000 -76.6000 50 993 hurdat_atl main 276 265 O_____________ hurdat_atl AL131996 15.3000 -76.6000 TS 50 993 0 3 27
1996319N11283 1996 113 NA CS MARCO 1996-11-21 15:00:00 TS 15.4500 -76.5500 main 268 246 P_____________ AL131996 15.4500 -76.5500 TS 50 994 0 3 17
1996319N11283 1996 113 NA CS MARCO 1996-11-21 18:00:00 TS 15.6000 -76.5000 50 995 hurdat_atl main 246 235 O_____________ hurdat_atl AL131996 15.6000 -76.5000 TS 50 995 0 3 26
1996319N11283 1996 113 NA CS MARCO 1996-11-21 21:00:00 TS 15.7150 -76.4150 main 239 229 P_____________ AL131996 15.7150 -76.4150 TS 52 993 0 3 44
1996319N11283 1996 113 NA CS MARCO 1996-11-22 00:00:00 TS 15.8000 -76.3000 55 992 hurdat_atl main 233 223 O_____________ hurdat_atl AL131996 15.8000 -76.3000 TS 55 992 0 3 56
1996319N11283 1996 113 NA CS MARCO 1996-11-22 03:00:00 TS 15.8649 -76.1800 main 223 223 P_____________ AL131996 15.8649 -76.1800 TS 55 988 0 3 71
1996319N11283 1996 113 NA CS MARCO 1996-11-22 06:00:00 TS 15.9000 -76.0000 55 985 hurdat_atl main 224 224 O_____________ hurdat_atl AL131996 15.9000 -76.0000 TS 55 985 0 5 85
1996319N11283 1996 113 NA CS MARCO 1996-11-22 09:00:00 TS 15.9076 -75.7075 main 230 230 P_____________ AL131996 15.9076 -75.7075 TS 57 986 0 6 90
1996319N11283 1996 113 NA CS MARCO 1996-11-22 12:00:00 TS 15.9000 -75.4000 60 987 hurdat_atl main 239 239 O_____________ hurdat_atl AL131996 15.9000 -75.4000 TS 60 987 0 5 92
1996319N11283 1996 113 NA CS MARCO 1996-11-22 15:00:00 TS 15.8925 -75.1775 main 247 247 P_____________ AL131996 15.8925 -75.1775 TS 55 991 0 4 90
1996319N11283 1996 113 NA CS MARCO 1996-11-22 18:00:00 TS 15.9000 -75.0000 50 995 hurdat_atl main 257 243 O_____________ hurdat_atl AL131996 15.9000 -75.0000 TS 50 995 0 3 79
1996319N11283 1996 113 NA CS MARCO 1996-11-22 21:00:00 TS 15.9575 -74.8350 main 243 239 P_____________ AL131996 15.9575 -74.8350 TS 47 995 0 3 71
1996319N11283 1996 113 NA CS MARCO 1996-11-23 00:00:00 TS 16.0000 -74.7000 45 995 hurdat_atl main 239 235 O_____________ hurdat_atl AL131996 16.0000 -74.7000 TS 45 995 0 2 87
1996319N11283 1996 113 NA CS MARCO 1996-11-23 03:00:00 TS 15.9725 -74.5775 main 235 232 P_____________ AL131996 15.9725 -74.5775 TS 40 995 0 2 117
1996319N11283 1996 113 NA CS MARCO 1996-11-23 06:00:00 TS 15.9000 -74.5000 35 995 hurdat_atl main 243 243 O_____________ hurdat_atl AL131996 15.9000 -74.5000 TS 35 995 0 2 147
1996319N11283 1996 113 NA CS MARCO 1996-11-23 09:00:00 TS 15.8000 -74.4625 main 254 254 P_____________ AL131996 15.8000 -74.4625 TS 35 995 0 2 172
1996319N11283 1996 113 NA CS MARCO 1996-11-23 12:00:00 TS 15.7000 -74.5000 35 995 hurdat_atl main 265 265 O_____________ hurdat_atl AL131996 15.7000 -74.5000 TS 35 995 0 2 209
1996319N11283 1996 113 NA CS MARCO 1996-11-23 15:00:00 TS 15.6197 -74.5601 main 278 278 P_____________ AL131996 15.6197 -74.5601 TS 32 997 -1 3 251
1996319N11283 1996 113 NA CS MARCO 1996-11-23 18:00:00 TS 15.6000 -74.8000 30 1000 hurdat_atl main 285 264 O_____________ hurdat_atl AL131996 15.6000 -74.8000 TD 30 1000 -1 8 275
1996319N11283 1996 113 NA CS MARCO 1996-11-23 21:00:00 TS 15.6854 -75.3473 main 264 235 P_____________ AL131996 15.6854 -75.3473 TD 30 1001 -1 12 280
1996319N11283 1996 113 NA CS MARCO 1996-11-24 00:00:00 TS 15.8000 -76.0000 30 1002 hurdat_atl main 235 214 O_____________ hurdat_atl AL131996 15.8000 -76.0000 TD 30 1002 -1 11 279
1996319N11283 1996 113 NA CS MARCO 1996-11-24 03:00:00 TS 15.8573 -76.5151 main 214 202 P_____________ AL131996 15.8573 -76.5151 TD 30 1002 -1 10 276
1996319N11283 1996 113 NA CS MARCO 1996-11-24 06:00:00 TS 15.9000 -77.0000 30 1003 hurdat_atl main 202 192 O_____________ hurdat_atl AL131996 15.9000 -77.0000 TD 30 1003 -1 10 276
1996319N11283 1996 113 NA CS MARCO 1996-11-24 09:00:00 TS 15.9574 -77.5075 main 192 192 P_____________ AL131996 15.9574 -77.5075 TD 32 1003 -1 10 276
1996319N11283 1996 113 NA CS MARCO 1996-11-24 12:00:00 TS 16.0000 -78.0000 35 1003 hurdat_atl main 208 208 O_____________ hurdat_atl AL131996 16.0000 -78.0000 TS 35 1003 0 9 270
1996319N11283 1996 113 NA CS MARCO 1996-11-24 15:00:00 TS 15.9546 -78.4280 main 225 225 P_____________ AL131996 15.9546 -78.4280 TS 35 1003 0 9 270
1996319N11283 1996 113 NA CS MARCO 1996-11-24 18:00:00 TS 16.0000 -78.9000 35 1003 hurdat_atl main 248 242 O_____________ hurdat_atl AL131996 16.0000 -78.9000 TS 35 1003 0 11 288
1996319N11283 1996 113 NA CS MARCO 1996-11-24 21:00:00 TS 16.2901 -79.5198 main 242 238 P_____________ AL131996 16.2901 -79.5198 TS 40 1002 0 14 299
1996319N11283 1996 113 NA CS MARCO 1996-11-25 00:00:00 TS 16.7000 -80.2000 45 1002 hurdat_atl main 254 254 O_____________ hurdat_atl AL131996 16.7000 -80.2000 TS 45 1002 0 15 302
1996319N11283 1996 113 NA CS MARCO 1996-11-25 03:00:00 TS 17.0924 -80.8651 main 292 292 P_____________ AL131996 17.0924 -80.8651 TS 47 1002 0 15 303
1996319N11283 1996 113 NA CS MARCO 1996-11-25 06:00:00 TS 17.5000 -81.5000 50 1002 hurdat_atl main 318 312 O_____________ hurdat_atl AL131996 17.5000 -81.5000 TS 50 1002 0 14 305
1996319N11283 1996 113 NA CS MARCO 1996-11-25 09:00:00 TS 17.8923 -82.0803 main 322 322 P_____________ AL131996 17.8923 -82.0803 TS 52 1001 0 13 307
1996319N11283 1996 113 NA CS MARCO 1996-11-25 12:00:00 TS 18.3000 -82.6000 55 1001 hurdat_atl main 333 302 O_____________ hurdat_atl AL131996 18.3000 -82.6000 TS 55 1001 0 13 312
1996319N11283 1996 113 NA CS MARCO 1996-11-25 15:00:00 TS 18.7725 -83.0949 main 292 256 P_____________ AL131996 18.7725 -83.0949 TS 50 1005 0 12 317
1996319N11283 1996 113 NA CS MARCO 1996-11-25 18:00:00 TS 19.2000 -83.5000 45 1009 hurdat_atl main 256 236 O_____________ hurdat_atl AL131996 19.2000 -83.5000 TS 45 1009 0 10 318
1996319N11283 1996 113 NA CS MARCO 1996-11-25 21:00:00 TS 19.4873 -83.7878 main 236 226 P_____________ AL131996 19.4873 -83.7878 TS 42 1009 0 7 317
1996319N11283 1996 113 NA CS MARCO 1996-11-26 00:00:00 TS 19.7000 -84.0000 40 1009 hurdat_atl main 226 214 O_____________ hurdat_atl AL131996 19.7000 -84.0000 TS 40 1009 0 6 316
1996319N11283 1996 113 NA CS MARCO 1996-11-26 03:00:00 TS 19.9375 -84.2450 main 214 190 P_____________ AL131996 19.9375 -84.2450 TS 37 1009 0 6 317
1996319N11283 1996 113 NA CS MARCO 1996-11-26 06:00:00 TS 20.1000 -84.4000 35 1010 hurdat_atl main 190 179 O_____________ hurdat_atl AL131996 20.1000 -84.4000 TS 35 1010 0 2 339
1996319N11283 1996 113 NA CS MARCO 1996-11-26 09:00:00 TS 20.1674 -84.3425 main 180 180 P_____________ AL131996 20.1674 -84.3425 TS 32 1010 -1 1 90
1996319N11283 1996 113 NA CS MARCO 1996-11-26 12:00:00 TS 20.1000 -84.3000 30 1010 hurdat_atl main 191 191 O_____________ hurdat_atl AL131996 20.1000 -84.3000 TD 30 1010 -1 3 204
1996319N11283 1996 113 NA CS MARCO 1996-11-26 15:00:00 TS 19.8902 -84.4779 main 212 212 P_____________ AL131996 19.8902 -84.4779 TD 27 1010 -1 7 223
1996319N11283 1996 113 NA CS MARCO 1996-11-26 18:00:00 TS 19.6000 -84.8000 25 1010 hurdat_atl main 246 O_____________ hurdat_atl AL131996 19.6000 -84.8000 TD 25 1010 -1 8 226

IBTrACS Databaseについて

本データベースは、米国NOAAが公開する1842年以降の世界の熱帯低気圧のベストトラックデータアーカイブInternational Best Track Archive for Climate Stewardship (IBTrACS)を、ウェブで閲覧しやすい形式に変換したものです。

最終更新日:2021-10-08